FEFF Airport Information

Runway Information
Runway 17 Length 8530 ft width 148 ft
Elevation 1208 ft Threshold 0 ft Heading 165
Runway 35 Length 8530 ft Width 148 ft
Elevation 1182 ft Threshold 0 ft Heading 345
Airport Frequencies
Type A/G Name RDO Frequency 655.9 MHZ
Type TWR Name TWR Frequency 119.7 MHZ
Airport Navaids
Type VOR-DME Name Bangui M Poko Frequency 117300 KHZ
Airport Weather Information & NOTAM
ADDS - METARS form results

(0132 UTC 19 August 2018)
 
METAR text: FEFF 190100Z VRB02KT 6000 -TSRA SCT006 FEW033CB 20/20 Q1013 BECMG BKN006
Conditions at: FEFF (BANGUI/M'POKO (M, CF) observed 0100 UTC 19 August 2018
Temperature: 20.0°C (68°F)
Dewpoint: 20.0°C (68°F) [RH = 100%]
Pressure (altimeter): 29.91 inches Hg (1013.0 mb)
Winds: variable direction winds at 2 MPH (2 knots; 1.0 m/s)
Visibility: 4 miles (6 km)
Ceiling: at least 12,000 feet AGL
Clouds: scattered clouds at 600 feet AGL
few clouds at 3300 feet AGL
Weather: -TSRA  (light rain associated with thunderstorm(s))